sensor_id;sensor_type;location;lat;lon;timestamp;pressure;altitude;pressure_sealevel;temperature;humidity
46836;BME280;32573;51.290;6.926;2023-01-27T00:01:37;100840.56;;;3.74;100.00
46836;BME280;32573;51.290;6.926;2023-01-27T00:04:05;100830.22;;;3.74;100.00
46836;BME280;32573;51.290;6.926;2023-01-27T00:06:34;100834.59;;;3.75;100.00
46836;BME280;32573;51.290;6.926;2023-01-27T00:09:02;100832.91;;;3.76;100.00
46836;BME280;32573;51.290;6.926;2023-01-27T00:11:32;100834.69;;;3.77;100.00
46836;BME280;32573;51.290;6.926;2023-01-27T00:14:18;100830.44;;;3.77;100.00
46836;BME280;32573;51.290;6.926;2023-01-27T00:16:46;100832.22;;;3.78;100.00
46836;BME280;32573;51.290;6.926;2023-01-27T00:19:14;100834.91;;;3.80;100.00
46836;BME280;32573;51.290;6.926;2023-01-27T00:21:45;100833.22;;;3.80;100.00
46836;BME280;32573;51.290;6.926;2023-01-27T00:24:40;100839.47;;;3.84;100.00
46836;BME280;32573;51.290;6.926;2023-01-27T00:27:11;100839.59;;;3.85;100.00
46836;BME280;32573;51.290;6.926;2023-01-27T00:29:39;100836.19;;;3.86;100.00
46836;BME280;32573;51.290;6.926;2023-01-27T00:32:08;100839.00;;;3.89;100.00
46836;BME280;32573;51.290;6.926;2023-01-27T00:34:54;100839.19;;;3.93;100.00
46836;BME280;32573;51.290;6.926;2023-01-27T00:37:23;100838.50;;;3.95;100.00
46836;BME280;32573;51.290;6.926;2023-01-27T00:39:51;100837.69;;;3.96;100.00
46836;BME280;32573;51.290;6.926;2023-01-27T00:42:20;100843.75;;;3.97;100.00
46836;BME280;32573;51.290;6.926;2023-01-27T00:44:49;100848.06;;;3.96;100.00
46836;BME280;32573;51.290;6.926;2023-01-27T00:47:31;100850.63;;;3.96;100.00
46836;BME280;32573;51.290;6.926;2023-01-27T00:50:00;100849.06;;;3.98;100.00
46836;BME280;32573;51.290;6.926;2023-01-27T00:52:28;100847.34;;;3.99;100.00
46836;BME280;32573;51.290;6.926;2023-01-27T00:54:57;100848.25;;;3.99;100.00
46836;BME280;32573;51.290;6.926;2023-01-27T00:57:26;100850.84;;;3.99;100.00
46836;BME280;32573;51.290;6.926;2023-01-27T00:59:55;100852.66;;;4.00;100.00
46836;BME280;32573;51.290;6.926;2023-01-27T01:02:25;100857.81;;;4.00;100.00
46836;BME280;32573;51.290;6.926;2023-01-27T01:04:54;100855.22;;;4.00;100.00
46836;BME280;32573;51.290;6.926;2023-01-27T01:07:23;100853.41;;;3.99;100.00
46836;BME280;32573;51.290;6.926;2023-01-27T01:09:52;100863.78;;;3.99;100.00
46836;BME280;32573;51.290;6.926;2023-01-27T01:12:21;100869.78;;;3.98;100.00
46836;BME280;32573;51.290;6.926;2023-01-27T01:14:51;100861.88;;;3.97;100.00
46836;BME280;32573;51.290;6.926;2023-01-27T01:17:21;100855.81;;;3.96;100.00
46836;BME280;32573;51.290;6.926;2023-01-27T01:19:49;100872.16;;;3.95;100.00
46836;BME280;32573;51.290;6.926;2023-01-27T01:22:18;100868.75;;;3.96;100.00
46836;BME280;32573;51.290;6.926;2023-01-27T01:24:46;100860.91;;;3.95;100.00
46836;BME280;32573;51.290;6.926;2023-01-27T01:27:15;100869.38;;;3.92;100.00
46836;BME280;32573;51.290;6.926;2023-01-27T01:29:43;100862.31;;;3.89;100.00
46836;BME280;32573;51.290;6.926;2023-01-27T01:32:13;100862.19;;;3.88;100.00
46836;BME280;32573;51.290;6.926;2023-01-27T01:34:42;100857.81;;;3.87;100.00
46836;BME280;32573;51.290;6.926;2023-01-27T01:37:10;100859.41;;;3.85;100.00
46836;BME280;32573;51.290;6.926;2023-01-27T01:39:40;100863.69;;;3.84;100.00
46836;BME280;32573;51.290;6.926;2023-01-27T01:42:08;100875.72;;;3.84;100.00
46836;BME280;32573;51.290;6.926;2023-01-27T01:44:42;100869.53;;;3.82;100.00
46836;BME280;32573;51.290;6.926;2023-01-27T01:47:15;100876.41;;;3.81;100.00
46836;BME280;32573;51.290;6.926;2023-01-27T01:49:45;100867.75;;;3.81;100.00
46836;BME280;32573;51.290;6.926;2023-01-27T01:52:18;100872.06;;;3.80;100.00
46836;BME280;32573;51.290;6.926;2023-01-27T01:54:50;100895.22;;;3.79;100.00
46836;BME280;32573;51.290;6.926;2023-01-27T01:57:20;100872.75;;;3.78;100.00
46836;BME280;32573;51.290;6.926;2023-01-27T01:59:54;100876.09;;;3.77;100.00
46836;BME280;32573;51.290;6.926;2023-01-27T02:02:27;100883.88;;;3.77;100.00
46836;BME280;32573;51.290;6.926;2023-01-27T02:04:59;100893.34;;;3.76;100.00
46836;BME280;32573;51.290;6.926;2023-01-27T02:07:33;100894.03;;;3.74;100.00
46836;BME280;32573;51.290;6.926;2023-01-27T02:10:03;100896.63;;;3.74;100.00
46836;BME280;32573;51.290;6.926;2023-01-27T02:12:35;100893.94;;;3.72;100.00
46836;BME280;32573;51.290;6.926;2023-01-27T02:15:07;100893.94;;;3.72;100.00
46836;BME280;32573;51.290;6.926;2023-01-27T02:17:38;100901.59;;;3.71;100.00
46836;BME280;32573;51.290;6.926;2023-01-27T02:20:13;100904.00;;;3.67;100.00
46836;BME280;32573;51.290;6.926;2023-01-27T02:22:50;100905.56;;;3.65;100.00
46836;BME280;32573;51.290;6.926;2023-01-27T02:25:25;100912.31;;;3.63;100.00
46836;BME280;32573;51.290;6.926;2023-01-27T02:27:57;100901.84;;;3.62;100.00
46836;BME280;32573;51.290;6.926;2023-01-27T02:30:26;100908.53;;;3.58;100.00
46836;BME280;32573;51.290;6.926;2023-01-27T02:32:55;100907.53;;;3.56;100.00
46836;BME280;32573;51.290;6.926;2023-01-27T02:35:29;100910.91;;;3.55;100.00
46836;BME280;32573;51.290;6.926;2023-01-27T02:38:00;100911.69;;;3.54;100.00
46836;BME280;32573;51.290;6.926;2023-01-27T02:40:29;100917.69;;;3.53;100.00
46836;BME280;32573;51.290;6.926;2023-01-27T02:43:02;100914.09;;;3.51;100.00
46836;BME280;32573;51.290;6.926;2023-01-27T02:45:31;100926.94;;;3.50;100.00
46836;BME280;32573;51.290;6.926;2023-01-27T02:47:59;100920.75;;;3.48;100.00
46836;BME280;32573;51.290;6.926;2023-01-27T02:50:28;100924.22;;;3.48;100.00
46836;BME280;32573;51.290;6.926;2023-01-27T02:52:56;100915.47;;;3.46;100.00
46836;BME280;32573;51.290;6.926;2023-01-27T02:55:26;100917.97;;;3.44;100.00
46836;BME280;32573;51.290;6.926;2023-01-27T02:57:55;100918.63;;;3.42;100.00
46836;BME280;32573;51.290;6.926;2023-01-27T03:00:46;100917.66;;;3.40;100.00
46836;BME280;32573;51.290;6.926;2023-01-27T03:03:14;100918.41;;;3.39;100.00
46836;BME280;32573;51.290;6.926;2023-01-27T03:05:43;100912.22;;;3.37;100.00
46836;BME280;32573;51.290;6.926;2023-01-27T03:08:12;100922.50;;;3.35;100.00
46836;BME280;32573;51.290;6.926;2023-01-27T03:10:41;100919.78;;;3.34;100.00
46836;BME280;32573;51.290;6.926;2023-01-27T03:13:10;100911.81;;;3.31;100.00
46836;BME280;32573;51.290;6.926;2023-01-27T03:15:39;100922.19;;;3.31;100.00
46836;BME280;32573;51.290;6.926;2023-01-27T03:18:26;100916.00;;;3.29;100.00
46836;BME280;32573;51.290;6.926;2023-01-27T03:21:00;100913.31;;;3.27;100.00
46836;BME280;32573;51.290;6.926;2023-01-27T03:23:29;100917.38;;;3.23;100.00
46836;BME280;32573;51.290;6.926;2023-01-27T03:26:07;100920.75;;;3.22;100.00
46836;BME280;32573;51.290;6.926;2023-01-27T03:28:40;100913.78;;;3.21;100.00
46836;BME280;32573;51.290;6.926;2023-01-27T03:31:29;100903.22;;;3.18;100.00
46836;BME280;32573;51.290;6.926;2023-01-27T03:34:04;100910.97;;;3.18;100.00
46836;BME280;32573;51.290;6.926;2023-01-27T03:36:44;100913.56;;;3.18;100.00
46836;BME280;32573;51.290;6.926;2023-01-27T03:39:31;100915.13;;;3.16;100.00
46836;BME280;32573;51.290;6.926;2023-01-27T03:42:18;100912.56;;;3.16;100.00
46836;BME280;32573;51.290;6.926;2023-01-27T03:45:05;100915.06;;;3.15;100.00
46836;BME280;32573;51.290;6.926;2023-01-27T03:47:51;100914.03;;;3.13;100.00
46836;BME280;32573;51.290;6.926;2023-01-27T03:50:20;100918.31;;;3.12;100.00
46836;BME280;32573;51.290;6.926;2023-01-27T03:52:57;100912.22;;;3.12;100.00
46836;BME280;32573;51.290;6.926;2023-01-27T03:55:30;100912.22;;;3.12;100.00
46836;BME280;32573;51.290;6.926;2023-01-27T03:57:59;100913.03;;;3.11;100.00
46836;BME280;32573;51.290;6.926;2023-01-27T04:00:40;100914.72;;;3.10;100.00
46836;BME280;32573;51.290;6.926;2023-01-27T04:03:11;100914.72;;;3.10;100.00
46836;BME280;32573;51.290;6.926;2023-01-27T04:06:01;100908.66;;;3.10;100.00
46836;BME280;32573;51.290;6.926;2023-01-27T04:08:47;100919.91;;;3.10;100.00
46836;BME280;32573;51.290;6.926;2023-01-27T04:11:16;100914.72;;;3.10;100.00
46836;BME280;32573;51.290;6.926;2023-01-27T04:14:03;100917.31;;;3.10;100.00
46836;BME280;32573;51.290;6.926;2023-01-27T04:16:35;100916.50;;;3.11;100.00
46836;BME280;32573;51.290;6.926;2023-01-27T04:19:05;100926.84;;;3.11;100.00
46836;BME280;32573;51.290;6.926;2023-01-27T04:21:35;100923.38;;;3.11;100.00
46836;BME280;32573;51.290;6.926;2023-01-27T04:24:04;100921.69;;;3.11;100.00
46836;BME280;32573;51.290;6.926;2023-01-27T04:26:44;100929.44;;;3.11;100.00
46836;BME280;32573;51.290;6.926;2023-01-27T04:29:13;100927.66;;;3.10;100.00
46836;BME280;32573;51.290;6.926;2023-01-27T04:31:41;100931.13;;;3.11;100.00
46836;BME280;32573;51.290;6.926;2023-01-27T04:34:11;100935.41;;;3.10;100.00
46836;BME280;32573;51.290;6.926;2023-01-27T04:36:41;100934.41;;;3.08;100.00
46836;BME280;32573;51.290;6.926;2023-01-27T04:39:10;100931.81;;;3.08;100.00
46836;BME280;32573;51.290;6.926;2023-01-27T04:41:41;100937.00;;;3.08;100.00
46836;BME280;32573;51.290;6.926;2023-01-27T04:44:10;100935.97;;;3.06;100.00
46836;BME280;32573;51.290;6.926;2023-01-27T04:46:39;100940.38;;;3.07;100.00
46836;BME280;32573;51.290;6.926;2023-01-27T04:49:07;100937.88;;;3.09;100.00
46836;BME280;32573;51.290;6.926;2023-01-27T04:51:36;100938.78;;;3.09;100.00
46836;BME280;32573;51.290;6.926;2023-01-27T04:54:06;100944.75;;;3.08;100.00
46836;BME280;32573;51.290;6.926;2023-01-27T04:56:36;100946.44;;;3.08;100.00
46836;BME280;32573;51.290;6.926;2023-01-27T04:59:06;100947.34;;;3.08;100.00
46836;BME280;32573;51.290;6.926;2023-01-27T05:01:35;100942.97;;;3.07;100.00
46836;BME280;32573;51.290;6.926;2023-01-27T05:04:03;100944.75;;;3.08;100.00
46836;BME280;32573;51.290;6.926;2023-01-27T05:06:32;100949.91;;;3.08;100.00
46836;BME280;32573;51.290;6.926;2023-01-27T05:09:01;100951.69;;;3.09;100.00
46836;BME280;32573;51.290;6.926;2023-01-27T05:11:31;100951.69;;;3.09;100.00
46836;BME280;32573;51.290;6.926;2023-01-27T05:13:59;100949.13;;;3.09;100.00
46836;BME280;32573;51.290;6.926;2023-01-27T05:16:29;100951.69;;;3.09;100.00
46836;BME280;32573;51.290;6.926;2023-01-27T05:19:00;100956.09;;;3.10;100.00
46836;BME280;32573;51.290;6.926;2023-01-27T05:21:28;100955.22;;;3.10;100.00
46836;BME280;32573;51.290;6.926;2023-01-27T05:23:57;100951.81;;;3.11;100.00
46836;BME280;32573;51.290;6.926;2023-01-27T05:26:26;100958.00;;;3.13;100.00
46836;BME280;32573;51.290;6.926;2023-01-27T05:28:57;100954.53;;;3.12;100.00
46836;BME280;32573;51.290;6.926;2023-01-27T05:31:27;100953.59;;;3.12;100.00
46836;BME280;32573;51.290;6.926;2023-01-27T05:33:58;100957.19;;;3.14;100.00
46836;BME280;32573;51.290;6.926;2023-01-27T05:36:28;100966.66;;;3.13;100.00
46836;BME280;32573;51.290;6.926;2023-01-27T05:38:57;100962.38;;;3.14;100.00
46836;BME280;32573;51.290;6.926;2023-01-27T05:41:28;100965.09;;;3.15;100.00
46836;BME280;32573;51.290;6.926;2023-01-27T05:43:58;100976.31;;;3.16;100.00
46836;BME280;32573;51.290;6.926;2023-01-27T05:46:31;100973.84;;;3.17;100.00
46836;BME280;32573;51.290;6.926;2023-01-27T05:49:01;100971.28;;;3.17;100.00
46836;BME280;32573;51.290;6.926;2023-01-27T05:51:34;100980.81;;;3.18;100.00
46836;BME280;32573;51.290;6.926;2023-01-27T05:54:05;100969.66;;;3.19;100.00
46836;BME280;32573;51.290;6.926;2023-01-27T05:56:36;100979.22;;;3.20;100.00
46836;BME280;32573;51.290;6.926;2023-01-27T05:59:09;100968.88;;;3.20;100.00
46836;BME280;32573;51.290;6.926;2023-01-27T06:01:39;100966.38;;;3.22;100.00
46836;BME280;32573;51.290;6.926;2023-01-27T06:04:11;100974.28;;;3.23;100.00
46836;BME280;32573;51.290;6.926;2023-01-27T06:06:39;100968.31;;;3.24;100.00
46836;BME280;32573;51.290;6.926;2023-01-27T06:09:08;100970.09;;;3.26;100.00
46836;BME280;32573;51.290;6.926;2023-01-27T06:11:40;100970.09;;;3.26;100.00
46836;BME280;32573;51.290;6.926;2023-01-27T06:14:09;100974.47;;;3.27;100.00
46836;BME280;32573;51.290;6.926;2023-01-27T06:16:40;100973.72;;;3.28;100.00
46836;BME280;32573;51.290;6.926;2023-01-27T06:19:13;100976.28;;;3.28;100.00
46836;BME280;32573;51.290;6.926;2023-01-27T06:21:43;100973.78;;;3.29;100.00
46836;BME280;32573;51.290;6.926;2023-01-27T06:24:12;100981.69;;;3.31;100.00
46836;BME280;32573;51.290;6.926;2023-01-27T06:26:40;100983.47;;;3.32;100.00
46836;BME280;32573;51.290;6.926;2023-01-27T06:29:12;100989.56;;;3.32;100.00
46836;BME280;32573;51.290;6.926;2023-01-27T06:31:40;100986.97;;;3.32;100.00
46836;BME280;32573;51.290;6.926;2023-01-27T06:34:08;100990.53;;;3.34;100.00
46836;BME280;32573;51.290;6.926;2023-01-27T06:36:37;100995.81;;;3.36;100.00
46836;BME280;32573;51.290;6.926;2023-01-27T06:39:05;100997.63;;;3.37;100.00
46836;BME280;32573;51.290;6.926;2023-01-27T06:41:34;100997.63;;;3.37;100.00
46836;BME280;32573;51.290;6.926;2023-01-27T06:44:02;101009.78;;;3.38;100.00
46836;BME280;32573;51.290;6.926;2023-01-27T06:46:32;101005.50;;;3.38;100.00
46836;BME280;32573;51.290;6.926;2023-01-27T06:49:00;101018.56;;;3.40;100.00
46836;BME280;32573;51.290;6.926;2023-01-27T06:51:31;101016.94;;;3.42;100.00
46836;BME280;32573;51.290;6.926;2023-01-27T06:53:59;101019.53;;;3.42;100.00
46836;BME280;32573;51.290;6.926;2023-01-27T06:56:28;101017.94;;;3.44;100.00
46836;BME280;32573;51.290;6.926;2023-01-27T06:58:56;101019.78;;;3.45;100.00
46836;BME280;32573;51.290;6.926;2023-01-27T07:01:24;101018.06;;;3.45;100.00
46836;BME280;32573;51.290;6.926;2023-01-27T07:03:55;101023.38;;;3.47;100.00
46836;BME280;32573;51.290;6.926;2023-01-27T07:06:29;101032.91;;;3.48;100.00
46836;BME280;32573;51.290;6.926;2023-01-27T07:09:00;101028.63;;;3.49;100.00
46836;BME280;32573;51.290;6.926;2023-01-27T07:11:29;101038.28;;;3.51;100.00
46836;BME280;32573;51.290;6.926;2023-01-27T07:13:59;101032.22;;;3.51;100.00
46836;BME280;32573;51.290;6.926;2023-01-27T07:16:36;101034.94;;;3.52;100.00
46836;BME280;32573;51.290;6.926;2023-01-27T07:19:06;101031.53;;;3.53;100.00
46836;BME280;32573;51.290;6.926;2023-01-27T07:21:35;101038.50;;;3.54;100.00
46836;BME280;32573;51.290;6.926;2023-01-27T07:24:05;101040.31;;;3.55;100.00
46836;BME280;32573;51.290;6.926;2023-01-27T07:26:35;101047.28;;;3.56;100.00
46836;BME280;32573;51.290;6.926;2023-01-27T07:29:04;101040.41;;;3.57;100.00
46836;BME280;32573;51.290;6.926;2023-01-27T07:31:32;101045.69;;;3.58;100.00
46836;BME280;32573;51.290;6.926;2023-01-27T07:34:05;101047.47;;;3.59;100.00
46836;BME280;32573;51.290;6.926;2023-01-27T07:36:34;101048.41;;;3.60;100.00
46836;BME280;32573;51.290;6.926;2023-01-27T07:39:05;101052.66;;;3.59;100.00
46836;BME280;32573;51.290;6.926;2023-01-27T07:41:33;101042.31;;;3.59;100.00
46836;BME280;32573;51.290;6.926;2023-01-27T07:44:01;101044.13;;;3.60;100.00
46836;BME280;32573;51.290;6.926;2023-01-27T07:46:33;101044.91;;;3.59;100.00
46836;BME280;32573;51.290;6.926;2023-01-27T07:49:03;101044.13;;;3.60;100.00
46836;BME280;32573;51.290;6.926;2023-01-27T07:51:35;101049.31;;;3.60;100.00
46836;BME280;32573;51.290;6.926;2023-01-27T07:54:04;101050.31;;;3.62;100.00
46836;BME280;32573;51.290;6.926;2023-01-27T07:56:32;101053.78;;;3.63;100.00
46836;BME280;32573;51.290;6.926;2023-01-27T07:59:04;101058.09;;;3.62;100.00
46836;BME280;32573;51.290;6.926;2023-01-27T08:01:33;101059.88;;;3.63;100.00
46836;BME280;32573;51.290;6.926;2023-01-27T08:04:01;101062.56;;;3.65;100.00
46836;BME280;32573;51.290;6.926;2023-01-27T08:06:32;101058.41;;;3.67;100.00
46836;BME280;32573;51.290;6.926;2023-01-27T08:09:02;101056.72;;;3.67;100.00
46836;BME280;32573;51.290;6.926;2023-01-27T08:11:31;101064.69;;;3.71;100.00
46836;BME280;32573;51.290;6.926;2023-01-27T08:14:02;101064.81;;;3.72;100.00
46836;BME280;32573;51.290;6.926;2023-01-27T08:16:30;101073.47;;;3.73;100.00
46836;BME280;32573;51.290;6.926;2023-01-27T08:18:59;101058.94;;;3.75;100.00
46836;BME280;32573;51.290;6.926;2023-01-27T08:21:27;101068.50;;;3.76;100.00
46836;BME280;32573;51.290;6.926;2023-01-27T08:23:59;101066.91;;;3.78;100.00
46836;BME280;32573;51.290;6.926;2023-01-27T08:26:29;101061.81;;;3.79;100.00
46836;BME280;32573;51.290;6.926;2023-01-27T08:28:57;101062.75;;;3.80;100.00
46836;BME280;32573;51.290;6.926;2023-01-27T08:31:26;101059.47;;;3.82;100.00
46836;BME280;32573;51.290;6.926;2023-01-27T08:33:54;101058.66;;;3.83;100.00
46836;BME280;32573;51.290;6.926;2023-01-27T08:36:23;101061.38;;;3.85;100.00
46836;BME280;32573;51.290;6.926;2023-01-27T08:38:51;101062.38;;;3.87;100.00
46836;BME280;32573;51.290;6.926;2023-01-27T08:41:25;101056.41;;;3.88;100.00
46836;BME280;32573;51.290;6.926;2023-01-27T08:43:58;101056.50;;;3.89;100.00
46836;BME280;32573;51.290;6.926;2023-01-27T08:46:26;101056.59;;;3.91;100.00
46836;BME280;32573;51.290;6.926;2023-01-27T08:48:58;101064.47;;;3.93;100.00
46836;BME280;32573;51.290;6.926;2023-01-27T08:51:27;101058.63;;;3.95;100.00
46836;BME280;32573;51.290;6.926;2023-01-27T08:54:04;101057.03;;;3.97;100.00
46836;BME280;32573;51.290;6.926;2023-01-27T08:56:34;101058.13;;;4.01;100.00
46836;BME280;32573;51.290;6.926;2023-01-27T08:59:06;101064.19;;;4.01;100.00
46836;BME280;32573;51.290;6.926;2023-01-27T09:01:37;101063.50;;;4.04;100.00
46836;BME280;32573;51.290;6.926;2023-01-27T09:04:08;101065.53;;;4.08;100.00
46836;BME280;32573;51.290;6.926;2023-01-27T09:06:37;101071.59;;;4.08;100.00
46836;BME280;32573;51.290;6.926;2023-01-27T09:09:06;101066.63;;;4.11;100.00
46836;BME280;32573;51.290;6.926;2023-01-27T09:11:40;101076.28;;;4.14;100.00
46836;BME280;32573;51.290;6.926;2023-01-27T09:14:11;101079.00;;;4.16;100.00
46836;BME280;32573;51.290;6.926;2023-01-27T09:16:39;101084.19;;;4.16;100.00
46836;BME280;32573;51.290;6.926;2023-01-27T09:19:08;101089.56;;;4.19;100.00
46836;BME280;32573;51.290;6.926;2023-01-27T09:21:36;101098.34;;;4.21;100.00
46836;BME280;32573;51.290;6.926;2023-01-27T09:24:05;101093.16;;;4.21;100.00
46836;BME280;32573;51.290;6.926;2023-01-27T09:26:34;101107.13;;;4.23;100.00
46836;BME280;32573;51.290;6.926;2023-01-27T09:29:02;101104.66;;;4.24;100.00
46836;BME280;32573;51.290;6.926;2023-01-27T09:31:32;101101.25;;;4.25;100.00
46836;BME280;32573;51.290;6.926;2023-01-27T09:34:01;101098.78;;;4.27;100.00
46836;BME280;32573;51.290;6.926;2023-01-27T09:36:31;101110.94;;;4.28;100.00
46836;BME280;32573;51.290;6.926;2023-01-27T09:39:03;101102.47;;;4.30;100.00
46836;BME280;32573;51.290;6.926;2023-01-27T09:45:07;101108.88;;;4.36;100.00
46836;BME280;32573;51.290;6.926;2023-01-27T09:47:56;101111.78;;;4.40;100.00
46836;BME280;32573;51.290;6.926;2023-01-27T09:50:40;101110.19;;;4.42;100.00
46836;BME280;32573;51.290;6.926;2023-01-27T09:53:35;101115.56;;;4.45;100.00
46836;BME280;32573;51.290;6.926;2023-01-27T09:56:13;101115.00;;;4.49;100.00
46836;BME280;32573;51.290;6.926;2023-01-27T09:58:56;101115.97;;;4.51;100.00
46836;BME280;32573;51.290;6.926;2023-01-27T10:01:37;101114.38;;;4.53;100.00
46836;BME280;32573;51.290;6.926;2023-01-27T10:04:38;101112.09;;;4.58;100.00
46836;BME280;32573;51.290;6.926;2023-01-27T10:07:21;101109.03;;;4.64;100.00
46836;BME280;32573;51.290;6.926;2023-01-27T10:10:05;101109.13;;;4.65;100.00
46836;BME280;32573;51.290;6.926;2023-01-27T10:12:53;101110.22;;;4.69;100.00
46836;BME280;32573;51.290;6.926;2023-01-27T10:15:35;101118.31;;;4.73;100.00
46836;BME280;32573;51.290;6.926;2023-01-27T10:18:19;101120.31;;;4.78;100.00
46836;BME280;32573;51.290;6.926;2023-01-27T10:20:57;101123.13;;;4.81;100.00
46836;BME280;32573;51.290;6.926;2023-01-27T10:23:38;101119.13;;;4.86;100.00
46836;BME280;32573;51.290;6.926;2023-01-27T10:26:19;101127.22;;;4.90;100.00
46836;BME280;32573;51.290;6.926;2023-01-27T10:28:55;101113.44;;;4.91;100.00
46836;BME280;32573;51.290;6.926;2023-01-27T10:31:27;101122.22;;;4.93;100.00
46836;BME280;32573;51.290;6.926;2023-01-27T10:34:03;101123.13;;;4.94;100.00
46836;BME280;32573;51.290;6.926;2023-01-27T10:36:44;101117.94;;;4.94;100.00
46836;BME280;32573;51.290;6.926;2023-01-27T10:39:21;101122.22;;;4.93;100.00
46836;BME280;32573;51.290;6.926;2023-01-27T10:42:00;101118.84;;;4.94;100.00
46836;BME280;32573;51.290;6.926;2023-01-27T10:44:47;101123.13;;;4.94;100.00
46836;BME280;32573;51.290;6.926;2023-01-27T10:47:29;101116.25;;;4.94;100.00
46836;BME280;32573;51.290;6.926;2023-01-27T10:50:06;101113.66;;;4.94;100.00
46836;BME280;32573;51.290;6.926;2023-01-27T10:52:42;101124.03;;;4.94;100.00
46836;BME280;32573;51.290;6.926;2023-01-27T10:55:16;101117.03;;;4.93;100.00
46836;BME280;32573;51.290;6.926;2023-01-27T10:57:54;101119.56;;;4.92;100.00
46836;BME280;32573;51.290;6.926;2023-01-27T11:00:29;101116.84;;;4.90;100.00
46836;BME280;32573;51.290;6.926;2023-01-27T11:03:24;101119.56;;;4.92;100.00
46836;BME280;32573;51.290;6.926;2023-01-27T11:05:56;101115.25;;;4.92;100.00
46836;BME280;32573;51.290;6.926;2023-01-27T11:08:31;101116.03;;;4.91;100.00
46836;BME280;32573;51.290;6.926;2023-01-27T11:11:05;101112.47;;;4.89;100.00
46836;BME280;32573;51.290;6.926;2023-01-27T11:13:57;101106.47;;;4.90;100.00
46836;BME280;32573;51.290;6.926;2023-01-27T11:16:31;101106.47;;;4.90;100.00
46836;BME280;32573;51.290;6.926;2023-01-27T11:19:09;101103.06;;;4.91;100.00
46836;BME280;32573;51.290;6.926;2023-01-27T11:21:40;101094.50;;;4.92;100.00
46836;BME280;32573;51.290;6.926;2023-01-27T11:24:35;101095.50;;;4.94;100.00
46836;BME280;32573;51.290;6.926;2023-01-27T11:27:14;101099.88;;;4.95;100.00
46836;BME280;32573;51.290;6.926;2023-01-27T11:29:51;101097.50;;;4.98;100.00
46836;BME280;32573;51.290;6.926;2023-01-27T11:32:32;101099.38;;;5.01;100.00
46836;BME280;32573;51.290;6.926;2023-01-27T11:35:08;101099.59;;;5.04;100.00
46836;BME280;32573;51.290;6.926;2023-01-27T11:37:38;101091.91;;;5.06;100.00
46836;BME280;32573;51.290;6.926;2023-01-27T11:40:18;101101.50;;;5.07;100.00
46836;BME280;32573;51.290;6.926;2023-01-27T11:42:49;101092.91;;;5.08;100.00
46836;BME280;32573;51.290;6.926;2023-01-27T11:45:19;101093.91;;;5.10;100.00
46836;BME280;32573;51.290;6.926;2023-01-27T11:47:50;101093.03;;;5.09;100.00
46836;BME280;32573;51.290;6.926;2023-01-27T11:50:21;101095.50;;;5.08;100.00
46836;BME280;32573;51.290;6.926;2023-01-27T11:52:56;101097.28;;;5.09;100.00
46836;BME280;32573;51.290;6.926;2023-01-27T11:55:33;101092.09;;;5.09;100.00
46836;BME280;32573;51.290;6.926;2023-01-27T11:58:11;101087.91;;;5.11;100.00
46836;BME280;32573;51.290;6.926;2023-01-27T12:00:44;101091.41;;;5.11;100.00
46836;BME280;32573;51.290;6.926;2023-01-27T12:03:18;101098.41;;;5.12;100.00
46836;BME280;32573;51.290;6.926;2023-01-27T12:05:53;101079.41;;;5.13;100.00
46836;BME280;32573;51.290;6.926;2023-01-27T12:08:36;101083.72;;;5.13;100.00
46836;BME280;32573;51.290;6.926;2023-01-27T12:11:23;101074.16;;;5.12;100.00
46836;BME280;32573;51.290;6.926;2023-01-27T12:13:54;101072.44;;;5.12;100.00
46836;BME280;32573;51.290;6.926;2023-01-27T12:16:39;101070.63;;;5.11;100.00
46836;BME280;32573;51.290;6.926;2023-01-27T12:19:21;101071.56;;;5.12;100.00
46836;BME280;32573;51.290;6.926;2023-01-27T12:21:53;101079.53;;;5.15;100.00
46836;BME280;32573;51.290;6.926;2023-01-27T12:24:26;101081.25;;;5.14;100.00
46836;BME280;32573;51.290;6.926;2023-01-27T12:26:57;101067.34;;;5.14;100.00
46836;BME280;32573;51.290;6.926;2023-01-27T12:29:31;101079.41;;;5.13;100.00
46836;BME280;32573;51.290;6.926;2023-01-27T12:32:13;101072.53;;;5.14;100.00
46836;BME280;32573;51.290;6.926;2023-01-27T12:34:44;101074.16;;;5.12;100.00
46836;BME280;32573;51.290;6.926;2023-01-27T12:37:19;101079.22;;;5.10;100.00
46836;BME280;32573;51.290;6.926;2023-01-27T12:39:50;101078.34;;;5.10;100.00
46836;BME280;32573;51.290;6.926;2023-01-27T12:42:35;101069.56;;;5.08;100.00
46836;BME280;32573;51.290;6.926;2023-01-27T12:45:18;101061.66;;;5.06;100.00
46836;BME280;32573;51.290;6.926;2023-01-27T12:48:00;101065.97;;;5.06;100.00
46836;BME280;32573;51.290;6.926;2023-01-27T12:50:31;101062.59;;;5.07;100.00
46836;BME280;32573;51.290;6.926;2023-01-27T12:53:04;101057.41;;;5.07;100.00
46836;BME280;32573;51.290;6.926;2023-01-27T12:55:34;101057.41;;;5.07;100.00
46836;BME280;32573;51.290;6.926;2023-01-27T12:58:04;101055.78;;;5.09;100.00
46836;BME280;32573;51.290;6.926;2023-01-27T13:00:33;101064.47;;;5.09;100.00
46836;BME280;32573;51.290;6.926;2023-01-27T13:03:05;101056.69;;;5.09;100.00
46836;BME280;32573;51.290;6.926;2023-01-27T13:05:36;101068.97;;;5.12;100.00
46836;BME280;32573;51.290;6.926;2023-01-27T13:08:05;101069.94;;;5.14;100.00
46836;BME280;32573;51.290;6.926;2023-01-27T13:10:48;101071.81;;;5.16;100.00
46836;BME280;32573;51.290;6.926;2023-01-27T13:13:22;101079.84;;;5.19;100.00
46836;BME280;32573;51.290;6.926;2023-01-27T13:15:55;101068.53;;;5.19;100.00
46836;BME280;32573;51.290;6.926;2023-01-27T13:18:24;101070.44;;;5.22;100.00
46836;BME280;32573;51.290;6.926;2023-01-27T13:20:55;101070.44;;;5.22;100.00
46836;BME280;32573;51.290;6.926;2023-01-27T13:23:29;101072.13;;;5.21;100.00